• Join FlightAware (Why Join?)
  • Login
  • US Flag 
07:38PM EDT


 

Airport Tracker/Info


-or-


 

Live Flight TrackerFlight Track Log ✈ N506BA ✈ 27-Apr-2012 ✈ KFMY - KISP

Flight Track Log - Related Links

Times and Time Zones

All times are in EDT time to prevent confusion due to time zone crossing. See the N506BA flight status page for this flight to view local times or setup timezone preferences in your user account.

Time Position Orientation Groundspeed Altitude Reporting Facility
EDT Latitude Longitude Course Direction KTS MPH feet Rate Location/Type
01:13PM 26.7272 -81.8131 100° East  Level FlightAware Approximate
01:14PM 26.7186 -81.7611 359° North 279 321 7,800  Level Miami Center
01:15PM 26.8019 -81.7622 30° Northeast 279 321 10,200 2,400 Climbing Miami Center
01:16PM 26.8853 -81.7075 37° Northeast 319 367 12,700 2,460 Climbing Miami Center
01:17PM 26.9669 -81.6386 19° North 345 397 15,200 2,280 Climbing Miami Center
01:18PM 27.0661 -81.6008 12° North 360 414 17,400 2,040 Climbing Miami Center
01:19PM 27.1692 -81.5769 North 373 429 19,300 1,800 Climbing Miami Center
01:20PM 27.2719 -81.5603 North 395 455 21,100 1,740 Climbing Miami Center
01:22PM 27.5114 -81.5186 North 414 476 24,600 1,740 Climbing Miami Center
01:23PM 27.6311 -81.4975 North 430 495 26,400 1,560 Climbing Miami Center
01:24PM 27.7506 -81.4789 North 430 495 27,800 1,200 Climbing Miami Center
01:25PM 27.8764 -81.4583 359° North 435 501 28,800 900 Climbing Miami Center
01:26PM 27.9786 -81.4600 360° North 446 513 29,700 900 Climbing Miami Center
01:27PM 28.1225 -81.4611 360° North 451 519 30,700 960 Climbing Miami Center
01:28PM 28.3653 -81.4631 357° North 477 549 32,400 960 Climbing Jacksonville Center
01:29PM 28.4947 -81.4706 358° North 477 549 33,400 1,020 Climbing Jacksonville Center
01:30PM 28.6264 -81.4758 359° North 477 549 34,500 1,080 Climbing Jacksonville Center
01:31PM 28.7578 -81.4786 359° North 477 549 35,600 960 Climbing Jacksonville Center
01:32PM 28.8892 -81.4817 359° North 477 549 36,500 960 Climbing Jacksonville Center
01:33PM 29.0208 -81.4844 360° North 477 549 37,600 1,020 Climbing Jacksonville Center
01:34PM 29.1481 -81.4850 358° North 472 543 38,600 900 Climbing Jacksonville Center
01:35PM 29.2733 -81.4903 North 460 529 39,400 660 Climbing Jacksonville Center
01:36PM 29.4006 -81.4672 North 454 522 40,000 540 Climbing Jacksonville Center
01:37PM 29.5319 -81.4486 North 459 528 40,500 480 Climbing Jacksonville Center
01:38PM 29.6589 -81.4300 North 459 528 41,000 240 Climbing Jacksonville Center
01:39PM 29.7797 -81.4114 North 454 522 41,000  Level Jacksonville Center
01:40PM 29.9050 -81.3925 North 449 517 41,000  Level Jacksonville Center
01:41PM 30.0278 -81.3717 North 444 511 41,000  Level Jacksonville Center
01:42PM 30.1486 -81.3528 North 444 511 41,000  Level Jacksonville Center
01:43PM 30.2736 -81.3339 North 444 511 41,000  Level Jacksonville Center
01:44PM 30.3967 -81.3153 North 444 511 41,000  Level Jacksonville Center
01:45PM 30.5092 -81.2964 North 450 518 41,000  Level Jacksonville Center
01:46PM 30.6300 -81.2800 North 444 511 41,000  Level Jacksonville Center
01:47PM 30.7531 -81.2586 North 444 511 41,000  Level Jacksonville Center
01:48PM 30.8781 -81.2417 North 444 511 41,000  Level Jacksonville Center
01:49PM 30.9989 -81.2228 North 444 511 41,000  Level Jacksonville Center
01:50PM 31.1217 -81.2036 23° Northeast 444 511 41,000  Level Jacksonville Center
01:51PM 31.2358 -81.1481 29° Northeast 438 504 41,000  Level Jacksonville Center
01:52PM 31.3558 -81.0703 29° Northeast 438 504 41,000  Level Jacksonville Center
01:53PM 31.4656 -80.9975 29° Northeast 448 516 41,000  Level Jacksonville Center
01:54PM 31.5667 -80.9322 30° Northeast 455 524 41,000  Level Jacksonville Center
01:55PM 31.6867 -80.8514 30° Northeast 455 524 41,000  Level Jacksonville Center
01:56PM 31.7878 -80.7833 29° Northeast 455 524 41,000  Level Jacksonville Center
01:57PM 31.9117 -80.7022 29° Northeast 455 524 41,000  Level Jacksonville Center
01:58PM 32.0231 -80.6283 29° Northeast 455 524 41,000  Level Jacksonville Center
01:59PM 32.1222 -80.5622 30° Northeast 455 524 41,000  Level Jacksonville Center
02:00PM 32.2458 -80.4781 31° Northeast 461 531 41,000 -60 Level Jacksonville Center
02:01PM 32.3550 -80.4014 28° Northeast 456 525 40,900  Descending Jacksonville Center
02:02PM 32.4642 -80.3319 30° Northeast 451 519 41,000  Climbing Jacksonville Center
02:03PM 32.5753 -80.2547 30° Northeast 451 519 41,000  Level Jacksonville Center
02:04PM 32.6864 -80.1775 30° Northeast 457 526 41,000  Level Jacksonville Center
02:05PM 32.7956 -80.1025 31° Northeast 457 526 41,000 240 Level Jacksonville Center
02:06PM 32.9064 -80.0225 39° Northeast 457 526 41,500 420 Climbing Jacksonville Center
02:07PM 32.9983 -79.9328 38° Northeast 469 540 41,900 420 Climbing Jacksonville Center
02:08PM 33.1003 -79.8378 39° Northeast 469 540 42,400 480 Climbing Jacksonville Center
02:09PM 33.2022 -79.7400 39° Northeast 469 540 42,900 420 Climbing Jacksonville Center
02:10PM 33.3000 -79.6444 39° Northeast 464 534 43,300 300 Climbing Jacksonville Center
02:11PM 33.4019 -79.5461 39° Northeast 458 527 43,600 300 Climbing Jacksonville Center
02:12PM 33.5036 -79.4478 38° Northeast 458 527 43,900 300 Climbing Jacksonville Center
02:13PM 33.6072 -79.3489 38° Northeast 463 533 44,200 300 Climbing Jacksonville Center
02:14PM 33.7169 -79.2447 40° Northeast 458 527 44,600 240 Climbing Jacksonville Center
02:16PM 33.9006 -79.0594 40° Northeast 464 534 45,000 120 Climbing Washington Center
02:17PM 34.0014 -78.9583 39° Northeast 464 534 45,000  Level Washington Center
02:18PM 34.1064 -78.8550 40° Northeast 464 534 45,000  Level Washington Center
02:19PM 34.2072 -78.7533 39° Northeast 464 534 45,000  Level Washington Center
02:20PM 34.3122 -78.6494 40° Northeast 464 534 45,000  Level Washington Center
02:21PM 34.4172 -78.5425 40° Northeast 470 541 45,000  Level Washington Center
02:22PM 34.5092 -78.4500 40° Northeast 470 541 45,000  Level Washington Center
02:23PM 34.6139 -78.3428 40° Northeast 475 547 45,000  Level Washington Center
02:24PM 34.7164 -78.2375 41° Northeast 475 547 45,000  Level Washington Center
02:25PM 34.8167 -78.1294 40° Northeast 481 554 45,000  Level Washington Center
02:26PM 34.9192 -78.0236 40° Northeast 481 554 45,000  Level Washington Center
02:27PM 35.0214 -77.9178 36° Northeast 481 554 45,000  Level Washington Center
02:28PM 35.1403 -77.8119 33° Northeast 481 554 45,000  Level Washington Center
02:29PM 35.2503 -77.7258 31° Northeast 473 544 45,000  Level Washington Center
02:30PM 35.3622 -77.6422 32° Northeast 473 544 45,000  Level Washington Center
02:31PM 35.4744 -77.5558 32° Northeast 473 544 45,000  Level Washington Center
02:32PM 35.5864 -77.4692 32° Northeast 467 537 45,000  Level Washington Center
02:33PM 35.6942 -77.3847 32° Northeast 467 537 45,000  Level Washington Center
02:34PM 35.8058 -77.2978 32° Northeast 467 537 45,000  Level Washington Center
02:35PM 35.9178 -77.2103 32° Northeast 467 537 45,000  Level Washington Center
02:36PM 36.0061 -77.1428 34° Northeast 461 531 45,000  Level Washington Center
02:37PM 36.1222 -77.0475 32° Northeast 455 524 45,000  Level Washington Center
02:38PM 36.2317 -76.9619 32° Northeast 460 529 45,000  Level Washington Center
02:39PM 36.3433 -76.8736 32° Northeast 460 529 45,000  Level Washington Center
02:40PM 36.4547 -76.7875 38° Northeast 465 535 45,000  Level Washington Center
02:42PM 36.6231 -76.6209 10° North 472 543 45,000  Level FlightAware ADS-B
02:42PM 36.6733 -76.6097 40° Northeast 465 535 45,000  Level Washington Center
02:43PM 36.8040 -76.4731 33° Northeast 471 542 45,000  Level FlightAware ADS-B
02:44PM 36.8624 -76.4254 33° Northeast 471 542 45,000  Level FlightAware ADS-B
02:44PM 36.9197 -76.3782 33° Northeast 471 542 45,000  Level FlightAware ADS-B
02:45PM 36.9863 -76.3234 33° Northeast 471 542 45,000  Level FlightAware ADS-B
02:46PM 37.0540 -76.2676 33° Northeast 472 543 45,000  Level FlightAware ADS-B
02:46PM 37.1113 -76.2203 262° West 473 544 45,000  Level FlightAware ADS-B
02:46PM 37.1078 -76.2508 34° Northeast 465 535 45,000  Level Washington Center
02:47PM 37.2167 -76.1603 38° Northeast 465 535 45,000  Level Washington Center
02:49PM 37.3878 -75.9908 33° Northeast 472 543 45,000  Level FlightAware ADS-B
02:50PM 37.4716 -75.9211 34° Northeast 471 542 45,000  Level FlightAware ADS-B
02:50PM 37.5437 -75.8608 277° West 471 542 45,000  Level FlightAware ADS-B
02:50PM 37.5472 -75.8956 42° Northeast 465 535 45,000  Level Washington Center
02:51PM 37.6776 -75.7486 34° Northeast 471 542 45,000  Level FlightAware ADS-B
02:52PM 37.7374 -75.6983 34° Northeast 472 543 45,000  Level FlightAware ADS-B
02:52PM 37.7925 -75.6519 34° Northeast 473 544 45,000  Level FlightAware ADS-B
02:53PM 37.8482 -75.6049 34° Northeast 474 545 45,000  Level FlightAware ADS-B
02:54PM 37.9813 -75.4924 33° Northeast 476 548 45,000  Level FlightAware ADS-B
02:55PM 38.0364 -75.4468 29° Northeast 474 545 45,000  Level FlightAware ADS-B
02:55PM 38.0989 -75.4036 26° Northeast 469 540 45,000 -720 Level FlightAware ADS-B
02:56PM 38.1861 -75.3484 27° Northeast 490 564 44,100 -1,620 Descending FlightAware ADS-B
02:57PM 38.2719 -75.2937 27° Northeast 491 565 42,700 -1,620 Descending FlightAware ADS-B
02:58PM 38.4103 -75.2052 27° Northeast 454 522 41,100 -1,680 Descending FlightAware ADS-B
02:59PM 38.4824 -75.1591 26° Northeast 444 511 39,700 -2,160 Descending FlightAware ADS-B
02:59PM 38.5392 -75.1229 27° Northeast 441 507 38,600 -2,220 Descending FlightAware ADS-B
03:00PM 38.6018 -75.0827 27° Northeast 439 505 37,300 -1,500 Descending FlightAware ADS-B
03:00PM 38.6588 -75.0461 27° Northeast 445 512 37,000 -300 Descending FlightAware ADS-B
03:01PM 38.7342 -74.9977 27° Northeast 459 528 37,000  Level FlightAware ADS-B
03:01PM 38.7941 -74.9589 30° Northeast 478 550 37,000  Level FlightAware ADS-B
03:02PM 38.8279 -74.9342 36° Northeast 494 568 37,000  Level FlightAware ADS-B
03:02PM 38.8717 -74.8936 43° Northeast 508 585 37,000 -360 Level FlightAware ADS-B
03:03PM 38.9242 -74.8315 43° Northeast 500 575 36,700 -720 Descending FlightAware ADS-B
03:03PM 38.9747 -74.7704 43° Northeast 484 557 36,300 -720 Descending FlightAware ADS-B
03:04PM 39.0282 -74.7055 43° Northeast 489 563 36,000 -900 Descending FlightAware ADS-B
03:04PM 39.0777 -74.6452 43° Northeast 480 552 35,400 -2,280 Descending FlightAware ADS-B
03:05PM 39.1281 -74.5836 43° Northeast 483 556 33,700 -3,300 Descending FlightAware ADS-B
03:05PM 39.1777 -74.5230 43° Northeast 482 555 32,000 -3,240 Descending FlightAware ADS-B
03:06PM 39.2460 -74.4394 43° Northeast 482 555 29,800 -3,240 Descending FlightAware ADS-B
03:06PM 39.2957 -74.3786 44° Northeast 482 555 28,100 -3,420 Descending FlightAware ADS-B
03:07PM 39.3490 -74.3131 43° Northeast 479 551 26,200 -3,480 Descending FlightAware ADS-B
03:07PM 39.4061 -74.2430 44° Northeast 478 550 24,200 -3,420 Descending FlightAware ADS-B
03:08PM 39.4596 -74.1769 45° Northeast 514 592 22,400 -2,700 Descending FlightAware ADS-B
03:09PM 39.5155 -74.1045 49° Northeast 512 589 21,300 -1,380 Descending FlightAware ADS-B
03:09PM 39.5627 -74.0346 50° Northeast 511 588 21,000 -300 Descending FlightAware ADS-B
03:10PM 39.6110 -73.9592 50° Northeast 503 579 21,000  Level FlightAware ADS-B
03:10PM 39.6558 -73.8893 50° Northeast 498 573 21,000 -420 Level FlightAware ADS-B
03:11PM 39.7004 -73.8193 50° Northeast 505 581 20,600 -1,260 Descending FlightAware ADS-B
03:11PM 39.7511 -73.7395 50° Northeast 517 595 19,700 -1,200 Descending FlightAware ADS-B
03:12PM 39.7991 -73.6647 47° Northeast 516 594 19,300 -720 Descending FlightAware ADS-B
03:12PM 39.8486 -73.5959 45° Northeast 498 573 19,000 -1,260 Descending FlightAware ADS-B
03:13PM 39.8997 -73.5298 43° Northeast 475 547 18,000 -2,100 Descending FlightAware ADS-B
03:13PM 39.9468 -73.4723 43° Northeast 453 521 16,800 -2,400 Descending FlightAware ADS-B
03:14PM 39.9921 -73.4169 43° Northeast 422 486 15,600 -2,520 Descending FlightAware ADS-B
03:14PM 40.0360 -73.3630 43° Northeast 399 459 14,200 -2,580 Descending FlightAware ADS-B
03:15PM 40.0851 -73.3029 43° Northeast 390 449 12,700 -2,340 Descending FlightAware ADS-B
03:15PM 40.1251 -73.2540 43° Northeast 369 425 11,600 -2,040 Descending FlightAware ADS-B
03:16PM 40.1879 -73.1772 43° Northeast 349 402 9,900 -1,680 Descending FlightAware ADS-B
03:17PM 40.2107 -73.1491 43° Northeast 340 391 9,600 -720 Descending FlightAware ADS-B
03:17PM 40.2288 -73.1273 43° Northeast 340 391 9,500 -540 Descending FlightAware ADS-B
03:17PM 40.2634 -73.0845 43° Northeast 332 382 9,200 -480 Descending FlightAware ADS-B
03:18PM 40.3000 -73.0396 43° Northeast 324 373 9,000 -240 Descending FlightAware ADS-B
03:18PM 40.3304 -73.0021 27° Northeast 322 371 9,000 -240 Level FlightAware ADS-B
03:19PM 40.3833 -72.9667 37° Northeast 315 362 8,700 -1,200 Descending New York TRACON
03:20PM 40.4500 -72.9000 27° Northeast 288 331 6,900 -1,920 Descending New York TRACON
03:21PM 40.5000 -72.8667 360° North 270 311 4,900 -1,440 Descending New York TRACON
03:22PM 40.5667 -72.8667 349° North 232 267 4,100 -720 Descending New York TRACON
03:23PM 40.6333 -72.8833 323° Northwest 233 268 3,500 -600 Descending New York TRACON
03:24PM 40.6833 -72.9333 294° West 194 223 2,900 -480 Descending New York TRACON
03:25PM 40.7000 -72.9833 323° Northwest 166 191 2,600 -600 Descending New York TRACON
03:26PM 40.7333 -73.0167 323° Northwest 148 170 1,800 -780 Descending New York TRACON
03:27PM 40.7667 -73.0500 303° West 128 147 1,100 -720 Descending New York TRACON
03:28PM 40.7833 -73.0833 303° West 114 131 400 -720 Descending New York TRACON